createdAt,value
2017-12-25T00:04:22.048Z,14.60
2017-12-25T00:06:49.487Z,14.68
2017-12-25T00:09:16.956Z,14.87
2017-12-25T00:11:45.325Z,15.27
2017-12-25T00:14:13.584Z,14.87
2017-12-25T00:16:41.031Z,16.17
2017-12-25T00:19:08.485Z,15.75
2017-12-25T00:21:36.697Z,14.43
2017-12-25T00:24:04.169Z,16.40
2017-12-25T00:26:31.626Z,15.95
2017-12-25T00:28:59.061Z,15.40
2017-12-25T00:31:26.490Z,14.68
2017-12-25T00:33:53.948Z,14.20
2017-12-25T00:36:21.380Z,16.20
2017-12-25T00:38:48.834Z,19.58
2017-12-25T00:41:16.271Z,18.77
2017-12-25T00:43:43.724Z,14.65
2017-12-25T00:46:11.250Z,15.90
2017-12-25T00:48:38.697Z,15.48
2017-12-25T00:51:06.144Z,15.93
2017-12-25T00:53:33.611Z,14.87
2017-12-25T00:56:01.824Z,14.75
2017-12-25T00:58:29.300Z,15.95
2017-12-25T01:00:56.702Z,16.42
2017-12-25T01:03:24.132Z,15.85
2017-12-25T01:05:51.572Z,17.20
2017-12-25T01:08:19.020Z,15.55
2017-12-25T01:10:46.464Z,16.37
2017-12-25T01:13:13.940Z,16.55
2017-12-25T01:15:41.483Z,16.30
2017-12-25T01:18:08.925Z,16.20
2017-12-25T01:20:36.364Z,15.40
2017-12-25T01:23:03.811Z,16.35
2017-12-25T01:25:31.254Z,16.37
2017-12-25T01:27:58.692Z,16.62
2017-12-25T01:30:26.135Z,16.17
2017-12-25T01:32:53.585Z,18.33
2017-12-25T01:35:21.024Z,16.37
2017-12-25T01:37:48.491Z,15.00
2017-12-25T01:40:16.717Z,16.20
2017-12-25T01:42:44.155Z,15.88
2017-12-25T01:45:11.611Z,17.23
2017-12-25T01:47:40.568Z,15.82
2017-12-25T01:50:08.077Z,16.40
2017-12-25T01:52:35.556Z,14.63
2017-12-25T01:55:02.996Z,17.12
2017-12-25T01:57:33.063Z,16.85
2017-12-25T02:00:03.352Z,16.33
2017-12-25T02:02:34.326Z,15.65
2017-12-25T02:08:05.247Z,15.85
2017-12-25T02:10:32.688Z,14.13
2017-12-25T02:13:00.133Z,15.90
2017-12-25T02:15:27.559Z,16.15
2017-12-25T02:17:55.015Z,14.85
2017-12-25T02:20:22.464Z,15.60
2017-12-25T02:22:49.911Z,14.95
2017-12-25T02:25:17.348Z,13.65
2017-12-25T02:27:44.797Z,13.77
2017-12-25T02:30:12.225Z,17.87
2017-12-25T02:32:39.673Z,12.93
2017-12-25T02:35:07.101Z,12.32
2017-12-25T02:37:34.569Z,14.65
2017-12-25T02:40:02.013Z,12.77
2017-12-25T02:42:29.452Z,14.38
2017-12-25T02:44:56.897Z,14.15
2017-12-25T02:47:24.352Z,13.60
2017-12-25T02:49:51.790Z,14.82
2017-12-25T02:52:20.046Z,13.57
2017-12-25T02:54:47.516Z,13.15
2017-12-25T02:57:14.948Z,12.90
2017-12-25T02:59:42.399Z,16.27
2017-12-25T03:02:09.831Z,12.55
2017-12-25T03:04:37.280Z,13.70
2017-12-25T03:07:04.732Z,13.55
2017-12-25T03:09:32.169Z,13.93
2017-12-25T03:11:59.692Z,13.95
2017-12-25T03:14:27.152Z,13.73
2017-12-25T03:16:54.600Z,14.93
2017-12-25T03:19:22.036Z,15.13
2017-12-25T03:21:49.492Z,13.98
2017-12-25T03:24:17.052Z,13.85
2017-12-25T03:26:44.576Z,12.70
2017-12-25T03:29:12.018Z,14.52
2017-12-25T03:31:39.564Z,15.90
2017-12-25T03:34:07.109Z,14.55
2017-12-25T03:36:34.669Z,14.65
2017-12-25T03:39:02.096Z,13.85
2017-12-25T03:41:29.538Z,15.07
2017-12-25T03:43:56.970Z,14.48
2017-12-25T03:46:24.408Z,14.40
2017-12-25T03:48:51.837Z,16.33
2017-12-25T03:51:19.281Z,16.42
2017-12-25T03:53:46.749Z,13.48
2017-12-25T03:56:14.213Z,17.42
2017-12-25T03:58:41.648Z,14.70
2017-12-25T04:01:09.094Z,15.98
2017-12-25T04:03:37.291Z,15.20
2017-12-25T04:06:04.748Z,15.60
2017-12-25T04:08:32.185Z,15.70
2017-12-25T04:10:59.620Z,16.62
2017-12-25T04:13:27.967Z,15.10
2017-12-25T04:15:56.200Z,14.80
2017-12-25T04:18:23.648Z,18.50
2017-12-25T04:20:51.088Z,16.30
2017-12-25T04:23:18.548Z,16.30
2017-12-25T04:25:46.003Z,16.45
2017-12-25T04:28:13.432Z,18.30
2017-12-25T04:30:41.641Z,18.65
2017-12-25T04:33:09.083Z,16.90
2017-12-25T04:35:36.533Z,16.83
2017-12-25T04:38:03.964Z,18.85
2017-12-25T04:40:31.411Z,18.67
2017-12-25T04:42:58.845Z,17.77
2017-12-25T04:45:26.276Z,18.48
2017-12-25T04:47:53.716Z,17.00
2017-12-25T04:50:21.161Z,17.83
2017-12-25T04:52:48.622Z,17.30
2017-12-25T04:55:16.167Z,16.62
2017-12-25T04:57:43.592Z,18.95
2017-12-25T05:00:11.023Z,17.62
2017-12-25T05:02:38.495Z,17.85
2017-12-25T05:05:05.915Z,18.17
2017-12-25T05:07:33.357Z,20.73
2017-12-25T05:10:00.797Z,18.98
2017-12-25T05:12:28.227Z,17.73
2017-12-25T05:14:55.672Z,18.52
2017-12-25T05:17:23.111Z,16.85
2017-12-25T05:19:50.544Z,17.20
2017-12-25T05:22:18.012Z,17.85
2017-12-25T05:24:45.446Z,17.10
2017-12-25T05:27:12.891Z,16.85
2017-12-25T05:29:40.340Z,16.60
2017-12-25T05:32:07.785Z,17.65
2017-12-25T05:34:35.243Z,18.37
2017-12-25T05:37:02.721Z,17.05
2017-12-25T05:39:30.158Z,18.12
2017-12-25T05:41:57.595Z,16.75
2017-12-25T05:44:25.119Z,17.73
2017-12-25T05:46:52.536Z,16.60
2017-12-25T05:49:20.077Z,16.77
2017-12-25T05:51:47.572Z,18.02
2017-12-25T05:54:15.028Z,16.92
2017-12-25T05:56:42.474Z,18.83
2017-12-25T05:59:09.916Z,16.30
2017-12-25T06:01:37.357Z,19.10
2017-12-25T06:04:04.794Z,17.45
2017-12-25T06:06:32.223Z,18.60
2017-12-25T06:09:00.488Z,18.08
2017-12-25T06:11:27.920Z,16.37
2017-12-25T06:13:56.215Z,18.85
2017-12-25T06:16:23.656Z,16.98
2017-12-25T06:18:51.260Z,17.40
2017-12-25T06:21:18.684Z,17.80
2017-12-25T06:23:46.142Z,17.62
2017-12-25T06:26:13.567Z,19.65
2017-12-25T06:28:41.055Z,18.90
2017-12-25T06:31:08.544Z,17.58
2017-12-25T06:33:35.988Z,20.00
2017-12-25T06:36:03.420Z,18.95
2017-12-25T06:38:31.639Z,16.12
2017-12-25T06:40:59.105Z,18.45
2017-12-25T06:43:26.527Z,19.27
2017-12-25T06:45:53.973Z,18.77
2017-12-25T06:48:21.408Z,16.70
2017-12-25T06:50:48.864Z,19.02
2017-12-25T06:53:16.957Z,19.42
2017-12-25T06:55:45.168Z,17.75
2017-12-25T06:58:12.616Z,18.30
2017-12-25T07:00:40.063Z,20.27
2017-12-25T07:03:07.607Z,17.05
2017-12-25T07:05:35.051Z,20.27
2017-12-25T07:08:02.604Z,19.08
2017-12-25T07:10:32.104Z,18.25
2017-12-25T07:12:59.544Z,17.45
2017-12-25T07:15:26.980Z,16.05
2017-12-25T07:17:54.439Z,17.12
2017-12-25T07:20:21.896Z,17.85
2017-12-25T07:22:49.351Z,16.42
2017-12-25T07:25:17.567Z,16.95
2017-12-25T07:27:45.001Z,14.85
2017-12-25T07:30:12.484Z,14.57
2017-12-25T07:32:40.032Z,15.35
2017-12-25T07:35:07.476Z,18.52
2017-12-25T07:37:34.921Z,16.52
2017-12-25T07:40:02.361Z,18.90
2017-12-25T07:42:29.809Z,18.12
2017-12-25T07:44:58.033Z,19.48
2017-12-25T07:47:25.501Z,19.75
2017-12-25T07:49:52.980Z,18.17
2017-12-25T07:52:20.483Z,20.15
2017-12-25T07:54:48.717Z,17.85
2017-12-25T07:57:16.150Z,20.05
2017-12-25T07:59:43.594Z,18.60
2017-12-25T08:02:11.032Z,18.92
2017-12-25T08:04:38.473Z,19.52
2017-12-25T08:07:19.550Z,18.87
2017-12-25T08:09:47.086Z,18.83
2017-12-25T08:12:14.524Z,18.08
2017-12-25T08:14:41.979Z,18.35
2017-12-25T08:17:09.430Z,19.37
2017-12-25T08:19:38.850Z,16.55
2017-12-25T08:22:06.386Z,17.20
2017-12-25T08:24:33.984Z,18.10
2017-12-25T08:27:01.441Z,19.25
2017-12-25T08:29:29.426Z,18.60
2017-12-25T08:31:56.866Z,17.10
2017-12-25T08:34:24.311Z,18.10
2017-12-25T08:36:51.852Z,18.30
2017-12-25T08:39:19.333Z,17.77
2017-12-25T08:41:47.569Z,17.48
2017-12-25T08:44:15.037Z,19.70
2017-12-25T08:46:42.480Z,16.55
2017-12-25T08:49:10.686Z,17.27
2017-12-25T08:51:38.145Z,16.87
2017-12-25T08:54:05.576Z,16.67
2017-12-25T08:56:33.044Z,16.65
2017-12-25T08:59:00.580Z,17.17
2017-12-25T09:01:28.017Z,17.40
2017-12-25T09:03:55.478Z,16.62
2017-12-25T09:06:22.912Z,14.87
2017-12-25T09:08:50.361Z,16.15
2017-12-25T09:11:17.790Z,15.90
2017-12-25T09:13:45.233Z,15.85
2017-12-25T09:16:12.777Z,17.70
2017-12-25T09:18:40.329Z,17.67
2017-12-25T09:21:07.772Z,17.80
2017-12-25T09:23:35.213Z,16.23
2017-12-25T09:26:02.672Z,17.73
2017-12-25T09:28:31.681Z,16.55
2017-12-25T09:30:59.112Z,17.70
2017-12-25T09:33:26.622Z,14.60
2017-12-25T09:35:54.105Z,14.32
2017-12-25T09:38:21.616Z,16.00
2017-12-25T09:40:49.149Z,16.15
2017-12-25T09:43:16.629Z,15.68
2017-12-25T09:45:44.073Z,15.73
2017-12-25T09:48:11.516Z,13.90
2017-12-25T09:50:38.956Z,17.85
2017-12-25T09:53:06.396Z,15.65
2017-12-25T09:55:34.620Z,15.10
2017-12-25T09:58:02.074Z,16.27
2017-12-25T10:00:29.540Z,15.23
2017-12-25T10:02:57.775Z,15.93
2017-12-25T10:05:25.412Z,15.20
2017-12-25T10:07:52.866Z,15.85
2017-12-25T10:10:20.323Z,14.05
2017-12-25T10:12:48.571Z,15.10
2017-12-25T10:15:16.028Z,16.67
2017-12-25T10:17:43.464Z,18.10
2017-12-25T10:20:11.670Z,16.37
2017-12-25T10:22:39.156Z,17.00
2017-12-25T10:25:06.610Z,17.23
2017-12-25T10:27:34.152Z,13.77
2017-12-25T10:30:01.593Z,14.10
2017-12-25T10:32:29.151Z,14.52
2017-12-25T10:34:57.371Z,58.22
2017-12-25T10:37:24.815Z,19.90
2017-12-25T10:39:52.275Z,16.33
2017-12-25T10:42:19.816Z,16.33
2017-12-25T10:44:47.260Z,15.50
2017-12-25T10:47:14.704Z,14.55
2017-12-25T10:49:42.146Z,13.82
2017-12-25T10:52:09.596Z,14.65
2017-12-25T10:54:37.034Z,16.70
2017-12-25T10:57:04.475Z,14.70
2017-12-25T10:59:31.911Z,15.45
2017-12-25T11:01:59.355Z,14.43
2017-12-25T11:04:26.792Z,15.65
2017-12-25T11:06:54.227Z,19.10
2017-12-25T11:09:21.823Z,17.77
2017-12-25T11:11:50.061Z,14.82
2017-12-25T11:14:17.506Z,13.93
2017-12-25T11:16:44.976Z,15.75
2017-12-25T11:19:12.422Z,14.18
2017-12-25T11:21:40.619Z,14.40
2017-12-25T11:24:08.058Z,14.85
2017-12-25T11:26:35.499Z,12.85
2017-12-25T11:29:02.932Z,15.00
2017-12-25T11:31:30.382Z,14.43
2017-12-25T11:33:57.820Z,14.77
2017-12-25T11:36:25.268Z,15.60
2017-12-25T11:38:52.716Z,17.60
2017-12-25T11:41:20.189Z,15.68
2017-12-25T11:43:47.633Z,16.12
2017-12-25T11:46:15.072Z,15.90
2017-12-25T11:48:42.603Z,17.50
2017-12-25T11:51:10.040Z,16.83
2017-12-25T11:53:37.600Z,15.90
2017-12-25T11:56:05.041Z,16.67
2017-12-25T11:58:32.497Z,16.12
2017-12-25T12:01:00.888Z,15.02
2017-12-25T12:03:28.331Z,15.65
2017-12-25T12:05:55.759Z,16.80
2017-12-25T12:08:23.968Z,17.85
2017-12-25T12:10:51.404Z,17.15
2017-12-25T12:13:18.849Z,14.68
2017-12-25T12:15:46.285Z,15.68
2017-12-25T12:18:13.735Z,15.52
2017-12-25T12:20:41.174Z,17.00
2017-12-25T12:23:08.652Z,16.23
2017-12-25T12:25:37.597Z,15.50
2017-12-25T12:28:05.039Z,16.62
2017-12-25T12:30:32.485Z,14.57
2017-12-25T12:32:59.960Z,15.40
2017-12-25T12:35:27.401Z,15.68
2017-12-25T12:37:54.856Z,15.60
2017-12-25T12:40:22.299Z,14.00
2017-12-25T12:42:49.746Z,14.45
2017-12-25T12:45:17.954Z,14.10
2017-12-25T12:47:45.438Z,14.13
2017-12-25T12:50:12.872Z,13.95
2017-12-25T12:52:40.333Z,15.40
2017-12-25T12:55:08.545Z,13.62
2017-12-25T12:57:35.980Z,14.60
2017-12-25T13:00:03.457Z,12.52
2017-12-25T13:02:30.951Z,13.13
2017-12-25T13:04:59.145Z,13.80
2017-12-25T13:07:26.613Z,13.02
2017-12-25T13:09:54.157Z,14.30
2017-12-25T13:12:21.592Z,13.25
2017-12-25T13:14:49.146Z,13.32
2017-12-25T13:17:16.576Z,12.18
2017-12-25T13:19:44.049Z,13.45
2017-12-25T13:22:12.258Z,13.48
2017-12-25T13:24:39.849Z,12.75
2017-12-25T13:27:08.060Z,14.52
2017-12-25T13:29:35.501Z,13.77
2017-12-25T13:32:02.963Z,13.68
2017-12-25T13:34:30.467Z,14.65
2017-12-25T13:36:58.672Z,13.25
2017-12-25T13:39:26.151Z,14.52
2017-12-25T13:41:54.357Z,13.23
2017-12-25T13:44:21.844Z,15.18
2017-12-25T13:46:49.244Z,17.42
2017-12-25T13:49:16.719Z,18.55
2017-12-25T13:51:44.177Z,15.13
2017-12-25T13:54:12.476Z,15.25
2017-12-25T13:56:39.933Z,13.18
2017-12-25T13:59:07.407Z,13.45
2017-12-25T14:01:34.845Z,13.30
2017-12-25T14:04:02.304Z,14.18
2017-12-25T14:06:29.744Z,14.18
2017-12-25T14:08:57.226Z,12.80
2017-12-25T14:11:24.735Z,13.82
2017-12-25T14:13:52.161Z,13.60
2017-12-25T14:16:19.601Z,12.77
2017-12-25T14:18:48.212Z,14.68
2017-12-25T14:21:16.460Z,12.73
2017-12-25T14:23:44.670Z,12.27
2017-12-25T14:26:12.145Z,12.35
2017-12-25T14:28:39.588Z,11.25
2017-12-25T14:31:07.853Z,11.80
2017-12-25T14:33:35.306Z,11.98
2017-12-25T14:36:02.749Z,13.40
2017-12-25T14:38:30.966Z,13.23
2017-12-25T14:40:58.447Z,14.23
2017-12-25T14:43:25.893Z,13.95
2017-12-25T14:45:53.321Z,11.98
2017-12-25T14:48:20.780Z,14.13
2017-12-25T14:50:48.978Z,13.15
2017-12-25T14:53:16.465Z,12.60
2017-12-25T14:55:43.896Z,14.18
2017-12-25T14:58:11.380Z,11.80
2017-12-25T15:00:39.603Z,13.57
2017-12-25T15:03:07.039Z,13.93
2017-12-25T15:05:34.489Z,14.30
2017-12-25T15:08:01.941Z,13.13
2017-12-25T15:10:29.502Z,14.15
2017-12-25T15:12:57.715Z,14.32
2017-12-25T15:15:25.207Z,13.73
2017-12-25T15:17:52.698Z,13.10
2017-12-25T15:20:20.250Z,15.10
2017-12-25T15:22:47.697Z,15.27
2017-12-25T15:25:15.161Z,13.95
2017-12-25T15:27:42.606Z,13.88
2017-12-25T15:30:10.528Z,13.90
2017-12-25T15:32:37.981Z,13.48
2017-12-25T15:35:05.448Z,14.85
2017-12-25T15:37:32.880Z,14.63
2017-12-25T15:40:00.316Z,15.27
2017-12-25T15:42:27.805Z,14.98
2017-12-25T15:44:56.186Z,16.02
2017-12-25T15:47:23.652Z,14.98
2017-12-25T15:49:51.096Z,17.73
2017-12-25T15:52:18.540Z,18.00
2017-12-25T15:54:45.997Z,27.15
2017-12-25T15:57:13.469Z,22.37
2017-12-25T15:59:41.004Z,24.70
2017-12-25T16:02:08.445Z,25.80
2017-12-25T16:04:35.892Z,28.20
2017-12-25T16:07:03.333Z,20.60
2017-12-25T16:09:30.781Z,20.62
2017-12-25T16:11:59.245Z,24.45
2017-12-25T16:14:26.749Z,26.45
2017-12-25T16:16:54.236Z,34.95
2017-12-25T16:19:22.459Z,50.45
2017-12-25T16:21:49.938Z,45.12
2017-12-25T16:24:17.383Z,49.50
2017-12-25T16:26:44.898Z,39.95
2017-12-25T16:29:12.353Z,30.65
2017-12-25T16:31:39.776Z,35.40
2017-12-25T16:34:07.216Z,41.70
2017-12-25T16:36:34.664Z,45.67
2017-12-25T16:39:02.686Z,40.85
2017-12-25T16:41:30.164Z,40.97
2017-12-25T16:43:57.598Z,43.67
2017-12-25T16:46:25.042Z,44.38
2017-12-25T16:48:52.492Z,55.00
2017-12-25T16:51:19.932Z,56.95
2017-12-25T16:53:47.368Z,37.85
2017-12-25T16:56:14.813Z,34.10
2017-12-25T16:58:42.253Z,26.85
2017-12-25T17:01:09.744Z,26.52
2017-12-25T17:03:37.961Z,23.83
2017-12-25T17:06:05.385Z,20.75
2017-12-25T17:08:32.835Z,19.55
2017-12-25T17:11:00.256Z,17.52
2017-12-25T17:13:27.696Z,21.05
2017-12-25T17:15:55.144Z,18.08
2017-12-25T17:18:22.584Z,23.12
2017-12-25T17:20:50.117Z,18.45
2017-12-25T17:23:18.355Z,18.48
2017-12-25T17:25:45.795Z,19.55
2017-12-25T17:28:13.296Z,18.70
2017-12-25T17:30:40.744Z,19.92
2017-12-25T17:33:08.190Z,16.85
2017-12-25T17:35:35.624Z,17.80
2017-12-25T17:38:03.065Z,17.00
2017-12-25T17:40:30.496Z,16.25
2017-12-25T17:42:57.986Z,18.40
2017-12-25T17:45:25.538Z,20.37
2017-12-25T17:47:52.986Z,15.93
2017-12-25T17:50:20.420Z,15.73
2017-12-25T17:52:47.985Z,18.67
2017-12-25T17:55:15.420Z,17.60
2017-12-25T17:57:42.871Z,16.48
2017-12-25T18:00:11.073Z,17.15
2017-12-25T18:02:38.506Z,17.95
2017-12-25T18:05:06.024Z,20.35
2017-12-25T18:07:34.226Z,21.67
2017-12-25T18:10:01.672Z,22.33
2017-12-25T18:12:29.246Z,19.42
2017-12-25T18:14:56.687Z,19.35
2017-12-25T18:17:24.124Z,27.67
2017-12-25T18:19:51.600Z,43.28
2017-12-25T18:22:19.012Z,26.00
2017-12-25T18:24:46.464Z,23.98
2017-12-25T18:27:13.903Z,22.20
2017-12-25T18:29:41.347Z,23.15
2017-12-25T18:32:08.781Z,21.40
2017-12-25T18:34:36.233Z,20.48
2017-12-25T18:37:03.682Z,23.25
2017-12-25T18:39:31.129Z,22.67
2017-12-25T18:41:58.597Z,21.45
2017-12-25T18:44:26.817Z,19.60
2017-12-25T18:46:54.260Z,20.40
2017-12-25T18:49:21.711Z,17.92
2017-12-25T18:51:49.179Z,19.42
2017-12-25T18:54:17.383Z,19.77
2017-12-25T18:56:44.822Z,18.15
2017-12-25T18:59:12.296Z,18.98
2017-12-25T19:01:39.744Z,21.58
2017-12-25T19:04:07.250Z,19.50
2017-12-25T19:06:34.696Z,20.65
2017-12-25T19:09:02.128Z,20.65
2017-12-25T19:11:29.626Z,20.80
2017-12-25T19:13:57.074Z,24.20
2017-12-25T19:16:24.564Z,33.17
2017-12-25T19:18:51.990Z,29.92
2017-12-25T19:21:19.464Z,25.80
2017-12-25T19:23:46.928Z,20.95
2017-12-25T19:26:14.358Z,19.05
2017-12-25T19:28:41.788Z,20.70
2017-12-25T19:31:09.248Z,21.20
2017-12-25T19:33:36.719Z,21.25
2017-12-25T19:36:04.208Z,23.27
2017-12-25T19:38:31.685Z,20.80
2017-12-25T19:40:59.150Z,21.50
2017-12-25T19:43:27.396Z,28.42
2017-12-25T19:45:54.888Z,27.15
2017-12-25T19:48:22.311Z,24.65
2017-12-25T19:50:49.949Z,21.67
2017-12-25T19:53:18.141Z,19.15
2017-12-25T19:55:45.615Z,20.62
2017-12-25T19:58:13.153Z,19.58
2017-12-25T20:00:40.585Z,18.95
2017-12-25T20:03:09.123Z,18.58
2017-12-25T20:05:37.354Z,18.10
2017-12-25T20:08:04.840Z,19.30
2017-12-25T20:10:32.280Z,19.23
2017-12-25T20:12:59.732Z,25.10
2017-12-25T20:15:27.210Z,19.30
2017-12-25T20:17:54.663Z,19.62
2017-12-25T20:20:22.109Z,18.80
2017-12-25T20:22:49.600Z,21.25
2017-12-25T20:25:17.020Z,20.30
2017-12-25T20:27:44.710Z,21.42
2017-12-25T20:30:12.175Z,26.48
2017-12-25T20:32:39.637Z,38.65
2017-12-25T20:35:07.120Z,37.40
2017-12-25T20:37:34.601Z,33.92
2017-12-25T20:40:02.084Z,33.15
2017-12-25T20:42:30.366Z,30.90
2017-12-25T20:44:57.795Z,27.65
2017-12-25T20:47:25.275Z,30.12
2017-12-25T20:49:52.757Z,29.50
2017-12-25T20:52:20.264Z,34.58
2017-12-25T20:54:47.747Z,32.28
2017-12-25T20:57:15.219Z,27.65
2017-12-25T20:59:42.919Z,28.60
2017-12-25T21:02:10.342Z,27.10
2017-12-25T21:04:37.842Z,29.02
2017-12-25T21:07:06.112Z,26.17
2017-12-25T21:09:33.627Z,30.35
2017-12-25T21:12:01.048Z,34.13
2017-12-25T21:14:28.539Z,34.10
2017-12-25T21:16:56.016Z,37.90
2017-12-25T21:19:23.502Z,37.10
2017-12-25T21:21:50.920Z,33.15
2017-12-25T21:24:18.404Z,31.25
2017-12-25T21:26:46.680Z,34.60
2017-12-25T21:29:14.186Z,33.75
2017-12-25T21:31:41.620Z,33.42
2017-12-25T21:34:09.343Z,29.70
2017-12-25T21:36:36.843Z,27.13
2017-12-25T21:39:05.083Z,23.85
2017-12-25T21:41:32.567Z,25.20
2017-12-25T21:44:00.013Z,23.10
2017-12-25T21:46:27.504Z,22.65
2017-12-25T21:48:54.995Z,20.95
2017-12-25T21:51:22.431Z,22.95
2017-12-25T21:53:49.926Z,24.98
2017-12-25T21:56:17.415Z,31.55
2017-12-25T21:58:45.657Z,26.75
2017-12-25T22:01:13.089Z,24.63
2017-12-25T22:03:40.516Z,24.35
2017-12-25T22:06:08.008Z,25.90
2017-12-25T22:08:36.400Z,27.00
2017-12-25T22:11:03.924Z,23.75
2017-12-25T22:13:31.479Z,22.55
2017-12-25T22:15:59.008Z,23.02
2017-12-25T22:18:26.492Z,20.95
2017-12-25T22:20:53.991Z,21.92
2017-12-25T22:23:22.245Z,19.52
2017-12-25T22:25:51.394Z,22.85
2017-12-25T22:28:18.871Z,20.55
2017-12-25T22:30:47.111Z,19.50
2017-12-25T22:33:14.597Z,18.90
2017-12-25T22:35:42.995Z,19.40
2017-12-25T22:38:10.474Z,19.23
2017-12-25T22:40:38.710Z,19.20
2017-12-25T22:43:06.153Z,19.98
2017-12-25T22:45:33.627Z,23.27
2017-12-25T22:48:01.955Z,23.50
2017-12-25T22:50:29.444Z,22.80
2017-12-25T22:52:57.061Z,21.70
2017-12-25T22:55:24.554Z,20.35
2017-12-25T22:57:52.215Z,25.67
2017-12-25T23:00:19.689Z,30.27
2017-12-25T23:02:47.168Z,31.25
2017-12-25T23:05:15.594Z,32.22
2017-12-25T23:07:43.109Z,31.60
2017-12-25T23:10:10.591Z,33.22
2017-12-25T23:12:38.115Z,30.00
2017-12-25T23:15:06.066Z,30.52
2017-12-25T23:17:34.296Z,27.13
2017-12-25T23:20:01.784Z,29.65
2017-12-25T23:22:29.268Z,27.10
2017-12-25T23:24:57.523Z,26.98
2017-12-25T23:27:25.769Z,25.50
2017-12-25T23:29:53.238Z,24.45
2017-12-25T23:32:21.614Z,23.70
2017-12-25T23:34:49.131Z,24.37
2017-12-25T23:37:17.366Z,22.17
2017-12-25T23:39:44.982Z,23.80
2017-12-25T23:42:12.529Z,20.45
2017-12-25T23:44:40.023Z,19.65
2017-12-25T23:47:08.226Z,17.92
2017-12-25T23:49:35.740Z,18.95
2017-12-25T23:52:03.969Z,18.23
2017-12-25T23:54:31.438Z,17.62
2017-12-25T23:57:00.586Z,17.83
2017-12-25T23:59:28.075Z,18.25
